Time;durP1;ratioP1;P1;durP2;ratioP2;P2;SDS_P1;SDS_P2;PMS_P1;PMS_P2;Temp;Humidity;BMP_temperature;BMP_pressure;BME280_temperature;BME280_humidity;BME280_pressure;Samples;Min_cycle;Max_cycle;Signal;HPM_P1;HPM_P2
2023/03/17 00:01:04;;;;;;;;;10.20;9.00;;;;;13.38;47.96;100021.00;4733992;30;45544;-63
2023/03/17 00:03:29;;;;;;;;;12.33;12.00;;;;;13.55;48.47;100045.88;4703108;30;46657;-62
2023/03/17 00:06:00;;;;;;;;;16.20;16.20;;;;;13.62;48.36;100062.25;4718823;30;45357;-64
2023/03/17 00:08:29;;;;;;;;;22.80;19.20;;;;;13.61;47.95;100064.16;4733438;30;45442;-63
2023/03/17 00:10:55;;;;;;;;;18.20;15.80;;;;;13.59;47.96;100066.34;4704325;30;45686;-63
2023/03/17 00:13:21;;;;;;;;;26.25;20.25;;;;;13.56;48.27;100058.59;4704211;30;48047;-63
2023/03/17 00:15:54;;;;;;;;;22.40;20.00;;;;;13.60;48.29;100072.72;4715284;30;45426;-62
2023/03/17 00:18:23;;;;;;;;;19.40;19.40;;;;;13.58;48.46;100070.19;4716307;30;45456;-61
2023/03/17 00:20:50;;;;;;;;;23.40;20.60;;;;;13.55;47.93;100070.69;4701578;30;45600;-62
2023/03/17 00:23:23;;;;;;;;;22.80;20.00;;;;;13.47;48.64;100060.91;4700984;30;46557;-62
2023/03/17 00:25:49;;;;;;;;;17.60;17.60;;;;;13.52;48.27;100073.94;4701149;30;46642;-62
2023/03/17 00:28:22;;;;;;;;;21.50;16.75;;;;;13.45;48.75;100081.50;4716111;30;45436;-62
2023/03/17 00:30:49;;;;;;;;;17.60;16.00;;;;;13.47;48.28;100080.22;4715914;30;45235;-63
2023/03/17 00:33:18;;;;;;;;;16.00;15.60;;;;;13.46;48.54;100066.66;4700891;30;48285;-61
2023/03/17 00:35:45;;;;;;;;;17.00;14.80;;;;;13.40;48.64;100080.31;4700981;30;45488;-62
2023/03/17 00:38:15;;;;;;;;;15.80;13.80;;;;;13.34;48.50;100075.78;4701565;30;45442;-62
2023/03/17 00:40:41;;;;;;;;;14.80;12.40;;;;;13.40;48.62;100077.56;4715600;30;45461;-63
2023/03/17 00:43:07;;;;;;;;;12.50;11.00;;;;;13.30;48.27;100063.59;4715429;30;45476;-63
2023/03/17 00:45:33;;;;;;;;;16.60;15.00;;;;;13.35;49.05;100076.63;4715542;30;45498;-65
2023/03/17 00:47:59;;;;;;;;;17.00;13.75;;;;;13.33;49.05;100085.16;4715472;30;45472;-63
2023/03/17 00:50:26;;;;;;;;;13.40;12.40;;;;;13.37;48.52;100086.34;4716727;30;45372;-62
2023/03/17 00:52:56;;;;;;;;;12.20;10.80;;;;;13.36;49.10;100087.41;4700445;30;45459;-62
2023/03/17 00:55:22;;;;;;;;;13.20;12.20;;;;;13.38;48.72;100079.72;4700936;30;45345;-62
2023/03/17 00:57:48;;;;;;;;;12.40;11.00;;;;;13.37;49.02;100075.31;4700671;30;45412;-62
2023/03/17 01:00:25;;;;;;;;;13.75;11.75;;;;;13.41;48.87;100076.47;4715750;30;45380;-62
2023/03/17 01:02:52;;;;;;;;;10.80;10.80;;;;;13.38;48.65;100076.13;4714913;30;45397;-63
2023/03/17 01:05:17;;;;;;;;;13.20;12.00;;;;;13.41;48.90;100084.75;4714620;30;45302;-63
2023/03/17 01:07:46;;;;;;;;;15.25;11.25;;;;;13.36;48.86;100079.16;4700324;30;45255;-62
2023/03/17 01:10:15;;;;;;;;;14.00;14.00;;;;;13.34;48.80;100073.03;4686827;30;45382;-62
2023/03/17 01:12:40;;;;;;;;;7.60;7.40;;;;;13.36;48.46;100081.91;4700650;30;45760;-62
2023/03/17 01:15:06;;;;;;;;;12.00;10.75;;;;;13.36;48.86;100076.41;4699794;29;45807;-62
2023/03/17 01:17:32;;;;;;;;;11.40;11.00;;;;;13.35;48.98;100080.22;4725437;30;45409;-62
2023/03/17 01:20:01;;;;;;;;;12.50;11.00;;;;;13.31;48.88;100087.31;4733068;30;45580;-63
2023/03/17 01:22:27;;;;;;;;;11.00;10.00;;;;;13.33;48.75;100090.66;4718185;30;45500;-62
2023/03/17 01:24:53;;;;;;;;;13.00;12.00;;;;;13.32;49.18;100083.47;4717541;30;45378;-62
2023/03/17 01:27:19;;;;;;;;;10.25;10.25;;;;;13.30;48.83;100088.41;4703387;30;45527;-62
2023/03/17 01:29:47;;;;;;;;;12.75;11.50;;;;;13.08;49.16;100052.44;4718146;30;45395;-62
2023/03/17 01:32:13;;;;;;;;;9.80;9.80;;;;;13.21;49.01;100063.16;4732011;30;45921;-63
2023/03/17 01:34:38;;;;;;;;;12.00;12.00;;;;;13.28;49.05;100074.03;4717636;30;45295;-62
2023/03/17 01:37:05;;;;;;;;;12.75;10.00;;;;;13.21;49.19;100068.66;4732138;30;45252;-63
2023/03/17 01:39:32;;;;;;;;;11.40;10.40;;;;;13.20;49.05;100078.03;4717840;30;45497;-62
2023/03/17 01:42:00;;;;;;;;;10.80;10.00;;;;;13.20;49.06;100078.03;4702821;30;47336;-63
2023/03/17 01:44:26;;;;;;;;;9.80;8.60;;;;;13.14;49.02;100060.53;4733110;29;45376;-62
2023/03/17 01:46:52;;;;;;;;;10.00;10.00;;;;;13.08;49.47;100052.44;4732281;30;45403;-62
2023/03/17 01:49:18;;;;;;;;;17.80;12.20;;;;;13.14;49.56;100065.22;4717548;30;45241;-62
2023/03/17 01:51:50;;;;;;;;;14.50;10.50;;;;;13.07;49.60;100051.59;4732064;30;48732;-61
2023/03/17 01:54:41;;;;;;;;;11.80;9.20;;;;;13.11;49.26;100057.44;4732943;30;45310;-62
2023/03/17 01:57:29;;;;;;;;;10.00;10.00;;;;;13.12;49.74;100059.09;4710199;30;45422;-62
2023/03/17 01:59:57;;;;;;;;;10.40;10.00;;;;;12.86;49.33;100012.63;4703563;30;45435;-62
2023/03/17 02:02:37;;;;;;;;;9.60;8.20;;;;;13.08;49.83;100050.50;4717624;30;47616;-62
2023/03/17 02:05:04;;;;;;;;;12.00;9.00;;;;;13.11;50.11;100057.44;4718445;30;45492;-62
2023/03/17 02:07:30;;;;;;;;;11.20;9.20;;;;;12.94;49.47;100021.56;4733036;29;45384;-62
2023/03/17 02:09:56;;;;;;;;;7.25;7.00;;;;;12.86;49.60;100014.56;4733459;29;45381;-62
2023/03/17 02:12:23;;;;;;;;;11.00;10.00;;;;;13.14;49.68;100049.50;4702971;30;47196;-62
2023/03/17 02:14:50;;;;;;;;;8.00;7.40;;;;;13.15;49.73;100059.44;4717275;30;45448;-62
2023/03/17 02:17:17;;;;;;;;;7.20;7.00;;;;;13.11;49.63;100072.06;4732409;30;45450;-62
2023/03/17 02:19:42;;;;;;;;;9.00;7.00;;;;;13.12;49.47;100070.13;4733494;30;45440;-63
2023/03/17 02:22:09;;;;;;;;;11.25;10.50;;;;;13.14;49.71;100070.75;4732005;30;47043;-62
2023/03/17 02:24:48;;;;;;;;;12.00;10.40;;;;;13.08;49.82;100064.28;4702542;30;45491;-63
2023/03/17 02:27:18;;;;;;;;;10.20;7.80;;;;;13.08;50.15;100064.28;4719978;30;45294;-62
2023/03/17 02:29:45;;;;;;;;;9.20;9.20;;;;;12.88;49.68;100032.47;4734940;30;45783;-62
2023/03/17 02:32:16;;;;;;;;;10.25;9.50;;;;;13.11;49.77;100058.28;4734612;29;45776;-62
2023/03/17 02:34:42;;;;;;;;;8.00;6.80;;;;;12.97;49.63;100029.38;4706098;30;45349;-62
2023/03/17 02:37:08;;;;;;;;;10.40;9.60;;;;;13.06;49.54;100038.06;4720167;30;45465;-61
2023/03/17 02:39:34;;;;;;;;;9.00;9.00;;;;;13.06;50.16;100057.34;4734824;30;45484;-62
2023/03/17 02:42:00;;;;;;;;;9.00;8.00;;;;;13.05;49.85;100048.25;4719765;30;46414;-63
2023/03/17 02:44:25;;;;;;;;;7.50;7.25;;;;;13.06;49.86;100049.91;4705232;30;45395;-63
2023/03/17 02:46:51;;;;;;;;;8.50;8.50;;;;;13.07;49.79;100048.00;4705307;30;45336;-62
2023/03/17 02:49:17;;;;;;;;;10.00;9.50;;;;;13.04;50.10;100045.72;4734748;30;45425;-62
2023/03/17 02:51:43;;;;;;;;;11.00;10.00;;;;;13.01;49.83;100047.91;4734323;30;47071;-62
2023/03/17 02:54:09;;;;;;;;;10.40;9.80;;;;;13.04;50.34;100046.59;4719869;30;45366;-62
2023/03/17 02:56:35;;;;;;;;;9.50;7.25;;;;;13.07;49.95;100042.50;4734573;30;45424;-62
2023/03/17 02:59:01;;;;;;;;;11.00;11.00;;;;;13.10;50.07;100039.25;4676802;30;45473;-62
2023/03/17 03:01:29;;;;;;;;;10.00;7.25;;;;;13.09;49.77;100032.91;4734325;30;48170;-62
2023/03/17 03:03:58;;;;;;;;;9.40;6.20;;;;;13.11;49.93;100030.75;4735471;30;45418;-62
2023/03/17 03:06:23;;;;;;;;;11.60;10.40;;;;;12.93;49.99;99986.84;4704860;30;45443;-61
2023/03/17 03:08:49;;;;;;;;;9.75;9.00;;;;;13.08;49.77;100003.66;4719590;30;45495;-61
2023/03/17 03:11:15;;;;;;;;;8.60;8.40;;;;;13.07;50.00;99999.25;4734019;30;45975;-61
2023/03/17 03:13:41;;;;;;;;;11.50;10.25;;;;;13.11;49.93;100005.94;4718511;30;45785;-62
2023/03/17 03:16:07;;;;;;;;;9.75;9.75;;;;;13.14;49.93;100008.19;4733844;30;45859;-62
2023/03/17 03:18:33;;;;;;;;;9.20;9.20;;;;;13.04;50.35;99991.50;4735164;29;45394;-61
2023/03/17 03:20:59;;;;;;;;;11.60;11.60;;;;;13.14;50.29;100016.47;4718836;30;45401;-62
2023/03/17 03:23:25;;;;;;;;;14.25;12.25;;;;;13.15;50.20;100023.63;4719327;30;45403;-63
2023/03/17 03:25:50;;;;;;;;;12.25;9.50;;;;;12.86;50.42;99968.56;4719181;30;45367;-62
2023/03/17 03:28:16;;;;;;;;;13.25;12.25;;;;;13.17;50.24;100017.06;4719164;30;45398;-63
2023/03/17 03:30:43;;;;;;;;;11.25;10.75;;;;;13.12;50.56;100020.53;4733858;30;45605;-63
2023/03/17 03:33:09;;;;;;;;;12.20;12.00;;;;;13.07;50.64;100010.25;4733819;30;45400;-62
2023/03/17 03:35:35;;;;;;;;;12.80;10.40;;;;;13.10;50.30;100018.06;4719677;30;45601;-63
2023/03/17 03:38:01;;;;;;;;;10.50;10.50;;;;;12.95;50.44;99999.31;4704951;30;45656;-63
2023/03/17 03:40:26;;;;;;;;;11.00;10.00;;;;;13.03;50.73;100025.63;4719568;30;47696;-63
2023/03/17 03:42:53;;;;;;;;;13.75;11.75;;;;;12.94;50.57;100018.81;4734778;29;45323;-61
2023/03/17 03:45:18;;;;;;;;;11.60;9.80;;;;;12.91;51.04;100028.41;4733496;30;45542;-62
2023/03/17 03:47:44;;;;;;;;;14.50;11.75;;;;;12.90;50.51;100032.25;4733562;30;45486;-64
2023/03/17 03:50:13;;;;;;;;;13.00;12.00;;;;;12.85;50.87;100037.66;4718633;30;46316;-62
2023/03/17 03:52:39;;;;;;;;;13.60;10.40;;;;;12.79;50.78;100031.22;4735151;29;45384;-62
2023/03/17 03:55:05;;;;;;;;;13.00;10.75;;;;;12.71;51.07;100026.91;4718691;30;45370;-62
2023/03/17 03:57:31;;;;;;;;;12.60;9.60;;;;;12.76;50.92;100045.47;4734685;29;45420;-63
2023/03/17 03:59:57;;;;;;;;;18.00;12.75;;;;;12.77;51.04;100046.31;4733498;30;45423;-63
2023/03/17 04:02:22;;;;;;;;;11.00;9.50;;;;;12.77;50.97;100036.13;4705934;29;45554;-62
2023/03/17 04:04:48;;;;;;;;;10.75;10.00;;;;;12.44;51.17;100001.88;4714512;30;45364;-62
2023/03/17 04:07:14;;;;;;;;;11.50;10.75;;;;;12.66;50.99;100032.34;4717092;30;45494;-64
2023/03/17 04:09:40;;;;;;;;;12.00;11.00;;;;;12.55;51.18;100017.50;4703592;30;46171;-63
2023/03/17 04:12:07;;;;;;;;;9.75;9.75;;;;;12.60;51.50;100036.06;4730017;30;45476;-63
2023/03/17 04:14:32;;;;;;;;;12.40;10.80;;;;;12.58;51.52;100041.81;4731581;30;45397;-62
2023/03/17 04:16:58;;;;;;;;;11.25;10.00;;;;;12.64;51.56;100041.91;4734571;29;45393;-62
2023/03/17 04:19:24;;;;;;;;;7.00;4.00;;;;;12.67;51.43;100047.78;4733968;29;45536;-62
2023/03/17 04:21:50;;;;;;;;;11.75;9.50;;;;;12.71;51.60;100039.88;4734120;30;45387;-62
2023/03/17 04:24:15;;;;;;;;;9.80;9.80;;;;;12.63;51.60;100035.56;4717802;30;45585;-61
2023/03/17 04:26:41;;;;;;;;;9.00;9.00;;;;;12.67;51.71;100044.16;4734070;29;45426;-61
2023/03/17 04:29:07;;;;;;;;;10.50;8.00;;;;;12.70;51.76;100039.00;4733878;29;45420;-62
2023/03/17 04:31:36;;;;;;;;;12.00;11.20;;;;;12.70;51.39;100046.44;4733972;29;45401;-63
2023/03/17 04:34:01;;;;;;;;;7.80;7.80;;;;;12.71;51.82;100034.34;4735041;29;45238;-65
2023/03/17 04:36:27;;;;;;;;;9.25;9.25;;;;;12.53;51.94;100000.41;4734112;29;45244;-63
2023/03/17 04:38:53;;;;;;;;;10.25;8.50;;;;;12.74;51.49;100020.94;4732567;30;46576;-63
2023/03/17 04:41:18;;;;;;;;;9.25;9.25;;;;;12.74;51.58;100026.44;4733633;29;45341;-63
2023/03/17 04:43:44;;;;;;;;;10.25;9.25;;;;;12.72;51.71;100023.06;4732471;30;45386;-62
2023/03/17 04:46:09;;;;;;;;;8.25;6.75;;;;;12.73;51.92;100023.94;4732594;30;45382;-63
2023/03/17 04:48:35;;;;;;;;;10.25;9.25;;;;;12.71;52.03;100026.09;4731457;30;46295;-63
2023/03/17 04:51:01;;;;;;;;;12.20;10.20;;;;;12.69;51.84;100025.47;4732487;30;45416;-62
2023/03/17 04:53:26;;;;;;;;;13.50;10.00;;;;;12.43;52.06;100002.94;4733622;29;45405;-62
2023/03/17 04:55:52;;;;;;;;;8.25;8.25;;;;;12.60;52.10;100031.38;4734046;29;45495;-61
2023/03/17 04:58:17;;;;;;;;;10.00;8.75;;;;;12.57;52.03;100031.88;4733717;29;46566;-63
2023/03/17 05:00:43;;;;;;;;;9.00;9.00;;;;;12.58;52.28;100044.56;4733359;29;45907;-62
2023/03/17 05:03:09;;;;;;;;;15.00;11.00;;;;;12.55;52.31;100030.44;4724273;29;45404;-61
2023/03/17 05:05:35;;;;;;;;;11.25;10.25;;;;;12.55;52.57;100045.03;4732362;29;45825;-62
2023/03/17 05:08:00;;;;;;;;;12.40;11.00;;;;;12.54;52.38;100034.28;4744320;29;45455;-62
2023/03/17 05:10:26;;;;;;;;;9.50;9.50;;;;;12.45;52.75;100028.31;4732146;30;45477;-62
2023/03/17 05:12:51;;;;;;;;;2.00;2.00;;;;;12.30;52.50;100004.03;4732902;29;45299;-63
2023/03/17 05:15:17;;;;;;;;;15.00;10.75;;;;;12.34;52.90;100027.25;4733766;29;45172;-61
2023/03/17 05:17:42;;;;;;;;;8.25;8.25;;;;;12.44;52.79;100032.16;4733370;29;46334;-62
2023/03/17 05:20:09;;;;;;;;;11.50;9.75;;;;;12.28;52.78;100015.28;4733203;29;45105;-62
2023/03/17 05:22:35;;;;;;;;;5.80;5.80;;;;;12.43;52.70;100041.47;4732384;30;45243;-62
2023/03/17 05:25:01;;;;;;;;;10.00;10.00;;;;;12.40;52.84;100036.44;4733762;29;45463;-61
2023/03/17 05:27:26;;;;;;;;;13.40;10.20;;;;;12.47;52.75;100046.25;4733085;30;45436;-62
2023/03/17 05:29:52;;;;;;;;;10.75;8.50;;;;;12.41;53.08;100036.22;4731614;30;45379;-62
2023/03/17 05:32:18;;;;;;;;;8.50;8.50;;;;;12.49;52.76;100039.66;4717416;30;45431;-62
2023/03/17 05:34:45;;;;;;;;;11.00;10.00;;;;;12.50;52.85;100038.59;4733608;29;45266;-62
2023/03/17 05:37:10;;;;;;;;;9.00;9.00;;;;;12.46;52.93;100036.34;4733053;30;45690;-62
2023/03/17 05:39:36;;;;;;;;;10.50;9.25;;;;;12.40;52.96;100030.94;4733466;29;45376;-62
2023/03/17 05:42:01;;;;;;;;;14.75;9.75;;;;;12.22;53.08;100009.91;4733191;30;45329;-61
2023/03/17 05:44:27;;;;;;;;;10.00;10.00;;;;;12.30;53.18;100026.91;4732993;29;45303;-62
2023/03/17 05:46:54;;;;;;;;;6.25;6.25;;;;;12.35;53.46;100034.44;4732732;29;45849;-62
2023/03/17 05:49:19;;;;;;;;;8.80;8.00;;;;;12.36;53.83;100033.34;4717033;30;45412;-62
2023/03/17 05:51:45;;;;;;;;;9.75;8.25;;;;;12.26;53.51;100014.69;4733133;30;45400;-63
2023/03/17 05:54:11;;;;;;;;;8.25;6.00;;;;;12.33;53.15;100031.09;4733116;29;45553;-62
2023/03/17 05:56:36;;;;;;;;;8.50;8.50;;;;;12.34;53.52;100038.25;4732995;30;45626;-63
2023/03/17 05:59:02;;;;;;;;;6.00;6.00;;;;;12.31;53.63;100044.22;4732663;30;45408;-63
2023/03/17 06:01:28;;;;;;;;;8.75;7.25;;;;;12.29;53.27;100039.00;4732687;30;45476;-63
2023/03/17 06:03:53;;;;;;;;;8.00;6.25;;;;;12.06;53.50;99996.66;4735968;29;45443;-61
2023/03/17 06:06:19;;;;;;;;;8.25;5.75;;;;;12.37;53.15;100042.44;4734732;30;45721;-62
2023/03/17 06:08:44;;;;;;;;;10.00;9.00;;;;;12.32;53.28;100041.25;4734597;30;45460;-62
2023/03/17 06:11:10;;;;;;;;;10.25;9.00;;;;;12.38;53.43;100041.38;4734947;30;45282;-62
2023/03/17 06:13:35;;;;;;;;;8.75;8.75;;;;;12.33;53.40;100037.41;4735818;30;45410;-61
2023/03/17 06:16:01;;;;;;;;;8.25;8.25;;;;;12.35;53.74;100039.94;4734530;30;46048;-61
2023/03/17 06:18:27;;;;;;;;;8.00;6.20;;;;;12.15;53.60;100012.78;4735681;29;45316;-62
2023/03/17 06:20:52;;;;;;;;;6.50;6.00;;;;;12.33;53.56;100039.34;4736225;30;45321;-62
2023/03/17 06:23:18;;;;;;;;;8.25;6.50;;;;;12.33;54.11;100042.09;4736313;30;45418;-62
2023/03/17 06:25:43;;;;;;;;;8.00;6.25;;;;;12.32;54.19;100052.25;4734259;29;45326;-62
2023/03/17 06:28:09;;;;;;;;;10.75;9.00;;;;;12.34;53.80;100054.78;4734124;30;45570;-62
2023/03/17 06:30:36;;;;;;;;;7.20;5.60;;;;;12.37;53.66;100061.72;4735173;30;45347;-61
2023/03/17 06:33:01;;;;;;;;;6.40;5.00;;;;;12.35;53.74;100045.44;4734505;30;45547;-62
2023/03/17 06:35:27;;;;;;;;;10.75;7.50;;;;;12.35;53.65;100045.44;4734754;30;46440;-61
2023/03/17 06:37:53;;;;;;;;;10.00;10.00;;;;;12.30;53.68;100043.41;4708951;29;45559;-63
2023/03/17 06:40:19;;;;;;;;;4.50;4.50;;;;;12.39;53.71;100051.28;4731596;29;45471;-63
2023/03/17 06:42:44;;;;;;;;;6.25;5.25;;;;;12.37;53.64;100039.69;4734697;30;45366;-62
2023/03/17 06:45:10;;;;;;;;;7.75;6.00;;;;;12.34;53.83;100033.56;4734094;30;47171;-62
2023/03/17 06:47:37;;;;;;;;;8.00;5.80;;;;;12.29;53.68;100024.38;4734412;30;45452;-61
2023/03/17 06:50:03;;;;;;;;;7.80;6.00;;;;;12.36;53.53;100046.25;4735748;29;45408;-61
2023/03/17 06:52:29;;;;;;;;;8.00;7.60;;;;;12.38;53.56;100053.19;4734514;30;45227;-62
2023/03/17 06:54:54;;;;;;;;;10.00;8.25;;;;;12.38;53.76;100066.13;4733996;30;46631;-62
2023/03/17 06:57:20;;;;;;;;;11.00;8.75;;;;;12.39;53.88;100068.63;4735344;30;45522;-61
2023/03/17 06:59:45;;;;;;;;;9.50;8.25;;;;;12.33;53.55;100061.34;4734270;30;45346;-62
2023/03/17 07:02:11;;;;;;;;;9.50;8.00;;;;;12.42;53.62;100070.06;4735499;29;45519;-62
2023/03/17 07:04:37;;;;;;;;;9.00;9.00;;;;;12.42;53.69;100073.66;4735219;29;46456;-62
2023/03/17 07:07:05;;;;;;;;;5.00;5.00;;;;;12.44;53.46;100071.50;4735404;29;45465;-62
2023/03/17 07:09:33;;;;;;;;;5.80;5.80;;;;;12.45;53.32;100064.91;4735359;29;45352;-63
2023/03/17 07:12:03;;;;;;;;;10.40;8.80;;;;;12.46;53.52;100071.25;4736184;29;45313;-61
2023/03/17 07:14:34;;;;;;;;;8.20;8.20;;;;;12.50;53.24;100061.44;4734720;29;46801;-62
2023/03/17 07:17:00;;;;;;;;;5.20;3.80;;;;;12.34;53.09;100027.25;4734867;30;45889;-63
2023/03/17 07:19:26;;;;;;;;;5.80;5.80;;;;;12.58;53.25;100060.22;4734413;30;45445;-62
2023/03/17 07:21:54;;;;;;;;;7.20;7.20;;;;;12.51;53.08;100056.78;4735895;29;45410;-64
2023/03/17 07:24:20;;;;;;;;;7.80;6.00;;;;;12.52;52.78;100052.94;4733882;30;46038;-62
2023/03/17 07:26:46;;;;;;;;;9.80;8.60;;;;;12.61;52.70;100079.03;4719255;30;45225;-61
2023/03/17 07:29:13;;;;;;;;;8.50;5.00;;;;;12.44;52.61;100052.22;4735485;29;45305;-62
2023/03/17 07:31:38;;;;;;;;;8.20;6.20;;;;;12.70;52.46;100076.75;4735524;30;45269;-63
2023/03/17 07:34:05;;;;;;;;;5.75;5.75;;;;;12.73;52.39;100081.75;4704284;30;47546;-63
2023/03/17 07:36:31;;;;;;;;;6.80;6.80;;;;;12.79;52.64;100083.53;4734139;30;45449;-62
2023/03/17 07:38:57;;;;;;;;;6.80;4.60;;;;;12.83;52.14;100092.16;4733796;30;45331;-62
2023/03/17 07:41:22;;;;;;;;;5.75;5.50;;;;;12.84;51.63;100080.91;4735469;29;45309;-61
2023/03/17 07:43:48;;;;;;;;;10.75;10.00;;;;;12.87;51.32;100077.63;4734332;29;46107;-63
2023/03/17 07:46:13;;;;;;;;;8.00;5.00;;;;;12.90;51.00;100072.75;4734494;29;45721;-62
2023/03/17 07:48:42;;;;;;;;;7.50;7.50;;;;;12.88;51.13;100071.03;4734208;29;45360;-61
2023/03/17 07:51:26;;;;;;;;;8.60;8.60;;;;;12.94;51.24;100083.03;4734803;30;45384;-61
2023/03/17 07:53:54;;;;;;;;;12.00;9.20;;;;;12.99;50.78;100083.13;4733806;30;46863;-63
2023/03/17 07:56:20;;;;;;;;;8.80;6.00;;;;;12.72;50.80;100038.78;4734484;29;45375;-62
2023/03/17 07:58:46;;;;;;;;;9.00;6.00;;;;;13.01;50.94;100083.72;4732731;30;45374;-62
2023/03/17 08:01:11;;;;;;;;;7.25;5.75;;;;;12.90;50.26;100056.22;4734929;30;45430;-62
2023/03/17 08:03:37;;;;;;;;;6.75;6.00;;;;;12.95;50.30;100070.06;4733002;30;45980;-62
2023/03/17 08:06:04;;;;;;;;;9.80;8.40;;;;;13.12;50.32;100095.78;4734154;29;45392;-63
2023/03/17 08:08:30;;;;;;;;;6.20;5.60;;;;;13.18;50.50;100093.13;4734290;29;45363;-62
2023/03/17 08:11:03;;;;;;;;;9.00;9.00;;;;;13.17;50.28;100089.53;4734599;30;45358;-62
2023/03/17 08:13:29;;;;;;;;;11.40;9.20;;;;;13.09;49.93;100065.13;4733893;29;45919;-62
2023/03/17 08:15:55;;;;;;;;;9.40;9.00;;;;;13.29;49.46;100086.75;4734380;29;45531;-61
2023/03/17 08:18:20;;;;;;;;;6.00;6.00;;;;;13.35;49.48;100084.91;4734541;29;45381;-62
2023/03/17 08:20:46;;;;;;;;;8.00;8.00;;;;;13.39;48.77;100086.06;4734595;29;45278;-61
2023/03/17 08:23:11;;;;;;;;;13.50;9.50;;;;;13.46;49.09;100097.00;4732619;30;47035;-61
2023/03/17 08:25:37;;;;;;;;;6.50;6.00;;;;;13.53;48.41;100098.53;4733800;30;45324;-61
2023/03/17 08:28:03;;;;;;;;;7.25;7.25;;;;;13.57;48.60;100079.56;4732965;30;45339;-61
2023/03/17 08:30:29;;;;;;;;;5.00;5.00;;;;;13.65;48.07;100092.09;4733356;30;45401;-62
2023/03/17 08:32:54;;;;;;;;;4.00;4.00;;;;;13.66;47.87;100082.75;4733194;30;45729;-61
2023/03/17 08:35:20;;;;;;;;;7.25;5.25;;;;;13.71;47.39;100093.03;4707058;29;45400;-60
2023/03/17 08:37:46;;;;;;;;;6.75;6.75;;;;;13.39;47.40;100029.03;4714645;30;45302;-62
2023/03/17 08:40:15;;;;;;;;;9.20;5.80;;;;;13.77;47.44;100094.78;4696770;30;45578;-62
2023/03/17 08:42:42;;;;;;;;;8.60;6.60;;;;;13.81;46.85;100085.75;4726542;29;45500;-61
2023/03/17 08:45:08;;;;;;;;;6.40;6.00;;;;;13.91;47.27;100073.22;4731761;30;45380;-60
2023/03/17 08:47:34;;;;;;;;;6.60;6.20;;;;;13.96;47.01;100063.13;4731212;30;45385;-65
2023/03/17 08:50:00;;;;;;;;;8.75;7.00;;;;;14.00;46.56;100044.13;4732772;29;45363;-61
2023/03/17 08:52:29;;;;;;;;;6.50;6.50;;;;;14.05;46.22;100068.22;4716300;30;47099;-61
2023/03/17 08:54:54;;;;;;;;;9.80;6.00;;;;;14.06;46.15;100072.63;4738659;29;45864;-61
2023/03/17 08:57:21;;;;;;;;;5.50;5.00;;;;;14.01;46.38;100069.78;4750025;29;45387;-60
2023/03/17 08:59:47;;;;;;;;;6.80;5.00;;;;;14.09;46.40;100072.16;4750259;29;45661;-61
2023/03/17 09:02:13;;;;;;;;;6.25;6.25;;;;;14.14;46.42;100074.97;4749681;29;46380;-62
2023/03/17 09:04:40;;;;;;;;;6.60;5.40;;;;;14.20;46.20;100073.13;4748446;29;45832;-61
2023/03/17 09:07:05;;;;;;;;;7.20;6.20;;;;;14.26;46.11;100068.50;4735575;29;45416;-61
2023/03/17 09:09:33;;;;;;;;;6.00;6.00;;;;;14.22;45.68;100051.63;4732194;29;45444;-62
2023/03/17 09:11:59;;;;;;;;;4.40;4.40;;;;;14.37;45.90;100079.44;4731985;29;46699;-61
2023/03/17 09:14:24;;;;;;;;;7.00;5.00;;;;;14.46;45.31;100076.28;4730034;30;45495;-62
2023/03/17 09:16:50;;;;;;;;;8.00;6.00;;;;;14.52;45.11;100071.66;4732074;30;45412;-61
2023/03/17 09:19:16;;;;;;;;;9.50;8.00;;;;;14.61;45.16;100056.28;4738990;29;45619;-62
2023/03/17 09:21:42;;;;;;;;;6.80;6.80;;;;;14.67;44.82;100049.75;4749739;29;45400;-61
2023/03/17 09:24:08;;;;;;;;;6.80;6.00;;;;;14.83;44.79;100050.81;4748157;29;45385;-60
2023/03/17 09:26:34;;;;;;;;;5.40;5.40;;;;;14.90;44.53;100048.69;4749568;29;45320;-61
2023/03/17 09:29:00;;;;;;;;;5.25;5.25;;;;;14.93;44.33;100035.47;4750042;29;45338;-61
2023/03/17 09:31:26;;;;;;;;;5.00;5.00;;;;;15.13;44.43;100043.13;4744283;29;46100;-61
2023/03/17 09:33:51;;;;;;;;;6.40;4.00;;;;;15.23;44.07;100048.78;4749736;29;45451;-62
2023/03/17 09:36:17;;;;;;;;;3.75;3.25;;;;;15.25;43.99;100054.03;4748820;29;45426;-62
2023/03/17 09:38:42;;;;;;;;;5.75;5.75;;;;;15.39;43.84;100060.00;4713607;29;46373;-59
2023/03/17 09:41:22;;;;;;;;;3.00;3.00;;;;;15.49;43.70;100039.91;4751141;29;46030;-61
2023/03/17 09:44:12;;;;;;;;;4.00;4.00;;;;;15.61;43.40;100034.19;4744822;29;45427;-62
2023/03/17 09:46:51;;;;;;;;;3.60;3.60;;;;;15.76;43.21;100030.72;4751173;29;45752;-62
2023/03/17 09:49:36;;;;;;;;;5.40;3.40;;;;;15.91;42.92;100032.78;4749538;29;45360;-60
2023/03/17 09:52:02;;;;;;;;;4.80;4.80;;;;;16.06;42.97;100032.09;4749696;29;46635;-65
2023/03/17 09:54:33;;;;;;;;;3.00;3.00;;;;;16.11;42.35;100021.91;4745357;29;45767;-61
2023/03/17 09:57:04;;;;;;;;;4.00;3.00;;;;;16.10;42.49;100008.31;4732252;30;45684;-61
2023/03/17 09:59:36;;;;;;;;;4.80;3.40;;;;;16.30;42.57;100027.00;4717081;30;45280;-62
2023/03/17 10:02:01;;;;;;;;;4.80;4.20;;;;;16.21;42.32;100004.50;4716959;30;47346;-62
2023/03/17 10:04:27;;;;;;;;;6.50;6.00;;;;;16.42;42.51;100037.03;4731070;29;45361;-62
2023/03/17 10:06:57;;;;;;;;;8.50;5.00;;;;;16.24;41.98;100008.69;4733038;30;45326;-62
2023/03/17 10:09:32;;;;;;;;;5.20;3.80;;;;;16.42;42.11;100032.31;4733257;30;45369;-62
2023/03/17 10:12:23;;;;;;;;;3.60;3.60;;;;;16.48;41.86;100041.47;4731776;30;45457;-62
2023/03/17 10:14:53;;;;;;;;;5.60;4.00;;;;;16.59;42.02;100054.28;4732508;30;45249;-61
2023/03/17 10:17:20;;;;;;;;;5.00;3.80;;;;;16.63;41.93;100049.88;4732059;30;45514;-62
2023/03/17 10:19:55;;;;;;;;;3.00;3.00;;;;;16.72;41.81;100058.50;4728127;29;45534;-62
2023/03/17 10:22:42;;;;;;;;;5.40;3.80;;;;;16.77;41.73;100055.75;4729154;30;46379;-61
2023/03/17 10:25:20;;;;;;;;;3.00;3.00;;;;;16.53;41.26;100017.44;4730234;29;45458;-61
2023/03/17 10:28:07;;;;;;;;;5.40;4.40;;;;;16.75;41.12;100055.19;4728707;30;45840;-60
2023/03/17 10:30:34;;;;;;;;;4.20;3.00;;;;;16.74;41.00;100059.06;4729095;30;45471;-61
2023/03/17 10:33:01;;;;;;;;;2.00;2.00;;;;;16.77;41.11;100064.06;4727939;30;48543;-62
2023/03/17 10:35:27;;;;;;;;;3.80;3.80;;;;;16.79;41.21;100044.41;4750366;29;45467;-62
2023/03/17 10:37:53;;;;;;;;;2.00;2.00;;;;;16.73;41.24;100054.63;4720645;29;45687;-61
2023/03/17 10:40:25;;;;;;;;;2.00;2.00;;;;;16.60;41.09;100022.72;4749924;29;45643;-61
2023/03/17 10:42:59;;;;;;;;;3.80;2.40;;;;;16.82;41.56;100060.50;4766828;29;46010;-60
2023/03/17 10:45:29;;;;;;;;;2.60;2.60;;;;;16.84;41.42;100047.19;4763446;29;45790;-64
2023/03/17 10:47:56;;;;;;;;;7.00;4.60;;;;;16.91;41.52;100050.53;4753717;29;45530;-61
2023/03/17 10:50:24;;;;;;;;;3.40;3.40;;;;;16.93;41.80;100047.50;4770082;29;45552;-61
2023/03/17 10:53:02;;;;;;;;;4.00;2.00;;;;;16.88;41.88;100048.34;4768642;29;46721;-62
2023/03/17 10:55:37;;;;;;;;;3.60;2.00;;;;;16.90;41.92;100067.44;4769995;29;45369;-62
2023/03/17 10:58:07;;;;;;;;;2.20;2.20;;;;;16.69;42.49;100017.47;4753058;29;45451;-62
2023/03/17 11:00:34;;;;;;;;;2.00;1.60;;;;;16.80;42.35;100034.97;4757429;29;45428;-62
2023/03/17 11:03:11;;;;;;;;;4.00;3.00;;;;;16.90;42.33;100067.44;4753403;29;46820;-62
2023/03/17 11:05:37;;;;;;;;;2.60;2.60;;;;;16.78;42.25;100035.28;4769778;29;45373;-63
2023/03/17 11:08:14;;;;;;;;;1.00;1.00;;;;;16.87;42.27;100059.69;4735378;29;45428;-63
2023/03/17 11:10:40;;;;;;;;;2.20;2.20;;;;;16.93;42.07;100059.41;4744389;29;45571;-61
2023/03/17 11:13:07;;;;;;;;;6.75;2.75;;;;;17.03;41.17;100068.91;4757007;29;45860;-61
2023/03/17 11:15:34;;;;;;;;;2.40;2.40;;;;;17.05;41.19;100061.16;4735317;29;45424;-62
2023/03/17 11:18:02;;;;;;;;;2.80;2.80;;;;;17.18;41.15;100049.56;4751625;29;45516;-62
2023/03/17 11:20:49;;;;;;;;;2.80;1.80;;;;;17.34;40.95;100055.97;4750261;29;45517;-60